Time;durP1;ratioP1;P1;durP2;ratioP2;P2;SDS_P1;SDS_P2;PMS_P1;PMS_P2;Temp;Humidity;BMP_temperature;BMP_pressure;BME280_temperature;BME280_humidity;BME280_pressure;Samples;Min_cycle;Max_cycle;Signal;HPM_P1;HPM_P2
2022/03/04 00:00:58;;;;;;;29.65;18.58;;;1.20;87.30;;;;;;5031723;28;20102;-46
2022/03/04 00:03:26;;;;;;;29.52;18.30;;;1.10;87.40;;;;;;5049640;28;20036;-46
2022/03/04 00:05:56;;;;;;;29.85;19.02;;;1.20;87.80;;;;;;5031771;28;20035;-44
2022/03/04 00:08:23;;;;;;;28.17;20.08;;;1.20;87.80;;;;;;5049727;28;20334;-45
2022/03/04 00:10:49;;;;;;;27.83;18.70;;;1.10;87.70;;;;;;5031707;28;20037;-44
2022/03/04 00:13:15;;;;;;;31.30;19.20;;;1.10;87.60;;;;;;5049767;28;20162;-47
2022/03/04 00:15:42;;;;;;;29.88;20.83;;;1.10;87.70;;;;;;5031419;28;20500;-48
2022/03/04 00:18:09;;;;;;;31.65;19.83;;;1.10;87.80;;;;;;5049116;28;20048;-44
2022/03/04 00:20:35;;;;;;;32.60;19.00;;;1.10;87.80;;;;;;5048456;28;20032;-48
2022/03/04 00:23:01;;;;;;;31.42;20.92;;;1.10;87.80;;;;;;5015086;28;20359;-45
2022/03/04 00:25:28;;;;;;;30.73;19.98;;;1.00;87.70;;;;;;5048694;28;20111;-47
2022/03/04 00:27:54;;;;;;;34.42;19.17;;;1.10;87.80;;;;;;5049238;28;20099;-45
2022/03/04 00:30:23;;;;;;;31.60;19.85;;;1.00;87.60;;;;;;5049563;28;20116;-46
2022/03/04 00:32:50;;;;;;;32.70;21.33;;;1.00;87.90;;;;;;5053244;28;20099;-45
2022/03/04 00:35:18;;;;;;;33.08;20.42;;;1.10;88.10;;;;;;5053197;28;20037;-44
2022/03/04 00:37:44;;;;;;;32.25;21.95;;;1.10;88.10;;;;;;5053069;28;20129;-44
2022/03/04 00:40:14;;;;;;;35.10;21.60;;;1.00;88.00;;;;;;5028795;28;20457;-44
2022/03/04 00:42:41;;;;;;;40.33;21.30;;;1.00;88.10;;;;;;5032387;28;20037;-44
2022/03/04 00:45:07;;;;;;;30.67;19.75;;;1.00;88.10;;;;;;5033497;28;20508;-44
2022/03/04 00:47:37;;;;;;;34.67;22.30;;;1.10;88.20;;;;;;5052742;28;20029;-45
2022/03/04 00:50:05;;;;;;;;;;;1.00;88.10;;;;;;5045506;28;20443;-44
2022/03/04 00:52:32;;;;;;;31.45;19.30;;;1.00;88.00;;;;;;5034731;28;19956;-45
2022/03/04 00:55:00;;;;;;;32.63;20.08;;;1.00;88.20;;;;;;5052093;28;20029;-44
2022/03/04 00:57:27;;;;;;;34.17;20.65;;;1.00;88.20;;;;;;5053015;28;20100;-44
2022/03/04 00:59:54;;;;;;;35.05;20.65;;;1.00;88.20;;;;;;5052461;28;20492;-45
2022/03/04 01:02:21;;;;;;;35.97;21.67;;;1.00;88.30;;;;;;5052780;28;20360;-44
2022/03/04 01:04:48;;;;;;;31.13;20.80;;;1.00;88.30;;;;;;5052529;28;20044;-45
2022/03/04 01:07:13;;;;;;;33.55;21.52;;;1.00;88.20;;;;;;5052036;28;20039;-44
2022/03/04 01:09:40;;;;;;;40.45;22.98;;;1.00;88.50;;;;;;5052657;28;20358;-44
2022/03/04 01:12:08;;;;;;;34.50;21.05;;;1.00;88.70;;;;;;5052203;28;20113;-47
2022/03/04 01:14:35;;;;;;;33.33;21.00;;;1.00;88.60;;;;;;5051743;28;20040;-45
2022/03/04 01:17:00;;;;;;;39.03;22.77;;;1.00;88.70;;;;;;5052290;28;20045;-45
2022/03/04 01:19:27;;;;;;;32.10;21.42;;;1.10;88.70;;;;;;5018523;28;20124;-43
2022/03/04 01:21:54;;;;;;;35.58;22.10;;;1.10;88.80;;;;;;5052268;28;20089;-47
2022/03/04 01:24:21;;;;;;;34.83;21.67;;;1.10;88.80;;;;;;5052493;28;20050;-45
2022/03/04 01:26:49;;;;;;;35.67;21.45;;;1.10;88.70;;;;;;5052104;28;20040;-45
2022/03/04 01:29:16;;;;;;;36.95;22.25;;;1.00;88.50;;;;;;5052285;28;20024;-45
2022/03/04 01:31:45;;;;;;;31.73;20.17;;;1.00;88.50;;;;;;5052284;28;20029;-47
2022/03/04 01:34:12;;;;;;;34.33;20.10;;;0.90;88.30;;;;;;5051628;28;20499;-43
2022/03/04 01:36:39;;;;;;;33.67;20.48;;;0.90;88.20;;;;;;5051928;28;20099;-47
2022/03/04 01:39:07;;;;;;;36.03;22.85;;;0.90;88.20;;;;;;5052093;28;20040;-45
2022/03/04 01:41:36;;;;;;;34.88;21.02;;;0.80;88.20;;;;;;5052254;28;20052;-46
2022/03/04 01:44:03;;;;;;;29.95;19.13;;;0.80;88.30;;;;;;5050854;28;20025;-43
2022/03/04 01:46:30;;;;;;;33.58;21.92;;;0.70;88.20;;;;;;5051233;28;20032;-43
2022/03/04 01:48:56;;;;;;;33.55;21.15;;;0.70;88.30;;;;;;5034648;28;20025;-47
2022/03/04 01:51:27;;;;;;;29.45;20.02;;;0.70;88.30;;;;;;5051400;28;20067;-46
2022/03/04 01:53:55;;;;;;;33.80;20.52;;;0.60;88.20;;;;;;5051830;28;20040;-43
2022/03/04 01:56:24;;;;;;;33.63;21.02;;;0.60;88.20;;;;;;5033914;28;20033;-43
2022/03/04 01:58:51;;;;;;;;;;;0.60;88.10;;;;;;5052203;28;20576;-45
2022/03/04 02:01:17;;;;;;;34.30;21.05;;;0.60;88.20;;;;;;5033536;28;20020;-42
2022/03/04 02:03:45;;;;;;;33.45;21.58;;;0.50;88.20;;;;;;5051412;28;20465;-44
2022/03/04 02:06:12;;;;;;;37.83;22.08;;;0.70;88.70;;;;;;5033641;28;20044;-44
2022/03/04 02:08:40;;;;;;;34.88;21.08;;;0.70;88.80;;;;;;5033958;28;20347;-43
2022/03/04 02:11:08;;;;;;;33.47;21.02;;;0.60;88.50;;;;;;5051254;28;20033;-44
2022/03/04 02:13:37;;;;;;;38.92;21.20;;;0.70;88.80;;;;;;5033690;28;20369;-44
2022/03/04 02:16:13;;;;;;;33.05;19.50;;;0.70;88.80;;;;;;5051453;28;20118;-46
2022/03/04 02:18:41;;;;;;;35.45;20.75;;;0.60;88.60;;;;;;5033606;28;20049;-45
2022/03/04 02:21:12;;;;;;;35.00;20.20;;;0.60;88.50;;;;;;5050624;28;20037;-44
2022/03/04 02:23:37;;;;;;;34.30;18.85;;;0.60;88.50;;;;;;5016600;28;20025;-43
2022/03/04 02:26:04;;;;;;;30.77;18.27;;;0.60;88.60;;;;;;5050289;28;20083;-44
2022/03/04 02:28:31;;;;;;;32.95;18.38;;;0.60;88.60;;;;;;5034936;28;20096;-47
2022/03/04 02:31:02;;;;;;;33.80;18.63;;;0.60;88.80;;;;;;5046789;28;20041;-44
2022/03/04 02:33:30;;;;;;;33.55;19.20;;;0.60;88.80;;;;;;5031634;28;20025;-44
2022/03/04 02:35:58;;;;;;;32.78;18.38;;;0.60;88.60;;;;;;5049180;28;20082;-44
2022/03/04 02:38:24;;;;;;;34.10;19.77;;;0.60;88.60;;;;;;5049531;28;20053;-44
2022/03/04 02:40:50;;;;;;;38.88;20.00;;;0.60;88.90;;;;;;5030479;28;20021;-43
2022/03/04 02:43:17;;;;;;;32.97;18.52;;;0.70;88.90;;;;;;5015575;28;20074;-44
2022/03/04 02:45:42;;;;;;;32.55;18.23;;;0.70;88.80;;;;;;5049491;28;20643;-45
2022/03/04 02:48:09;;;;;;;34.28;18.25;;;0.70;88.70;;;;;;5029452;28;20036;-44
2022/03/04 02:50:36;;;;;;;29.02;16.30;;;0.70;88.70;;;;;;5049632;28;20032;-44
2022/03/04 02:53:04;;;;;;;29.63;18.17;;;0.70;88.70;;;;;;5049621;28;20067;-43
2022/03/04 02:55:36;;;;;;;32.33;18.33;;;0.70;88.60;;;;;;5047147;28;20358;-44
2022/03/04 02:58:07;;;;;;;30.17;17.60;;;0.70;88.50;;;;;;5049568;28;20033;-44
2022/03/04 03:00:34;;;;;;;34.47;18.98;;;0.70;88.50;;;;;;5046419;28;20024;-44
2022/03/04 03:03:02;;;;;;;31.52;18.20;;;0.70;88.50;;;;;;5031609;28;20029;-45
2022/03/04 03:05:28;;;;;;;29.98;17.13;;;0.60;88.40;;;;;;5031872;28;20119;-43
2022/03/04 03:07:56;;;;;;;33.58;19.90;;;0.60;88.50;;;;;;5032235;28;20048;-45
2022/03/04 03:10:22;;;;;;;31.27;19.75;;;0.60;88.40;;;;;;5049449;28;20078;-45
2022/03/04 03:12:52;;;;;;;36.30;20.45;;;0.70;88.60;;;;;;5049158;28;20140;-46
2022/03/04 03:15:18;;;;;;;40.30;22.10;;;0.70;88.60;;;;;;5048762;28;20040;-45
2022/03/04 03:17:46;;;;;;;43.92;22.90;;;0.70;88.70;;;;;;5029834;28;20199;-45
2022/03/04 03:20:13;;;;;;;45.13;24.88;;;0.80;88.90;;;;;;5048590;28;20033;-43
2022/03/04 03:22:39;;;;;;;42.80;22.13;;;0.90;89.10;;;;;;5049390;28;20362;-43
2022/03/04 03:25:08;;;;;;;37.90;20.65;;;0.90;89.10;;;;;;5049448;28;20033;-48
2022/03/04 03:27:35;;;;;;;37.15;19.77;;;0.90;89.10;;;;;;5049408;28;20033;-43
2022/03/04 03:30:01;;;;;;;39.63;22.25;;;0.90;89.10;;;;;;5031676;28;20041;-45
2022/03/04 03:32:27;;;;;;;32.85;20.50;;;0.90;89.20;;;;;;5049482;28;20530;-46
2022/03/04 03:34:52;;;;;;;33.63;18.02;;;0.90;89.10;;;;;;5049266;28;20071;-44
2022/03/04 03:37:19;;;;;;;30.52;18.20;;;0.90;89.10;;;;;;5015542;28;20434;-44
2022/03/04 03:39:46;;;;;;;31.23;17.33;;;0.90;89.00;;;;;;5048997;28;20457;-44
2022/03/04 03:42:15;;;;;;;26.35;17.25;;;0.90;88.80;;;;;;5049165;28;20040;-45
2022/03/04 03:44:43;;;;;;;28.33;18.13;;;0.90;88.70;;;;;;5049197;28;20338;-46
2022/03/04 03:47:13;;;;;;;31.60;19.27;;;0.90;88.70;;;;;;5030549;28;20031;-43
2022/03/04 03:49:42;;;;;;;31.52;17.77;;;0.90;88.50;;;;;;5031200;28;20032;-44
2022/03/04 03:52:10;;;;;;;30.05;17.10;;;0.80;88.40;;;;;;5048593;28;20113;-45
2022/03/04 03:54:38;;;;;;;26.67;17.40;;;0.70;88.20;;;;;;5031814;28;20025;-44
2022/03/04 03:57:04;;;;;;;32.03;17.40;;;0.60;88.30;;;;;;5048954;28;20445;-48
2022/03/04 03:59:30;;;;;;;24.75;15.73;;;0.60;88.20;;;;;;5048710;28;21250;-43
2022/03/04 04:02:02;;;;;;;22.67;15.02;;;0.50;88.10;;;;;;5045630;28;20100;-46
2022/03/04 04:04:34;;;;;;;27.35;15.38;;;0.40;88.10;;;;;;5030353;28;20120;-49
2022/03/04 04:07:07;;;;;;;28.15;15.90;;;0.40;88.20;;;;;;5051852;28;20099;-43
2022/03/04 04:09:39;;;;;;;30.40;16.17;;;0.40;88.40;;;;;;5055215;28;20425;-46
2022/03/04 04:12:08;;;;;;;27.83;15.60;;;0.30;88.30;;;;;;5055458;28;20484;-47
2022/03/04 04:14:42;;;;;;;24.92;15.23;;;0.40;88.50;;;;;;5038068;28;20033;-45
2022/03/04 04:17:13;;;;;;;28.55;15.77;;;0.30;88.50;;;;;;5037497;28;20045;-44
2022/03/04 04:19:38;;;;;;;27.55;16.15;;;0.30;88.40;;;;;;5055369;28;20036;-47
2022/03/04 04:22:07;;;;;;;23.60;14.38;;;0.30;88.40;;;;;;5055309;28;20148;-44
2022/03/04 04:24:34;;;;;;;25.88;15.25;;;0.20;88.40;;;;;;5055151;28;20025;-44
2022/03/04 04:27:01;;;;;;;24.05;14.57;;;0.20;88.40;;;;;;5054602;28;20025;-43
2022/03/04 04:29:29;;;;;;;26.80;15.75;;;0.20;88.60;;;;;;5055137;28;20021;-46
2022/03/04 04:31:57;;;;;;;28.27;16.50;;;0.20;88.70;;;;;;5054612;28;20104;-46
2022/03/04 04:34:26;;;;;;;25.15;15.02;;;0.20;88.70;;;;;;5055397;28;20033;-47
2022/03/04 04:36:54;;;;;;;25.95;15.98;;;0.20;88.80;;;;;;5050605;28;20119;-45
2022/03/04 04:39:24;;;;;;;30.00;16.30;;;0.30;88.80;;;;;;5055339;28;20052;-43
2022/03/04 04:41:51;;;;;;;28.67;17.00;;;0.30;88.90;;;;;;5054355;28;20104;-46
2022/03/04 04:44:19;;;;;;;25.50;15.30;;;0.20;88.70;;;;;;5054576;28;20024;-44
2022/03/04 04:46:46;;;;;;;27.48;16.20;;;0.20;88.80;;;;;;5051619;28;20462;-44
2022/03/04 04:49:13;;;;;;;24.38;16.08;;;0.20;88.90;;;;;;5055217;28;20350;-45
2022/03/04 04:51:39;;;;;;;25.75;14.73;;;0.30;88.90;;;;;;5054790;28;20094;-43
2022/03/04 04:54:06;;;;;;;26.67;16.58;;;0.20;88.80;;;;;;5020479;28;20041;-44
2022/03/04 04:56:36;;;;;;;25.67;16.25;;;0.20;88.70;;;;;;5037733;28;20649;-46
2022/03/04 04:59:02;;;;;;;23.63;13.95;;;0.10;88.60;;;;;;5055265;28;20036;-45
2022/03/04 05:01:29;;;;;;;30.02;18.75;;;0.10;88.60;;;;;;5037394;28;20497;-45
2022/03/04 05:03:55;;;;;;;24.63;14.15;;;0.10;88.70;;;;;;5037482;28;20025;-46
2022/03/04 05:06:22;;;;;;;28.20;16.23;;;0.00;88.60;;;;;;5054710;28;20028;-45
2022/03/04 05:08:51;;;;;;;25.40;14.80;;;0.10;88.70;;;;;;5055176;28;20017;-44
2022/03/04 05:11:19;;;;;;;25.85;14.98;;;0.00;88.60;;;;;;5037215;28;20052;-44
2022/03/04 05:13:47;;;;;;;22.60;14.27;;;0.00;88.60;;;;;;5037765;28;20357;-44
2022/03/04 05:16:15;;;;;;;26.17;16.15;;;0.00;88.80;;;;;;5054179;28;20049;-44
2022/03/04 05:18:41;;;;;;;26.25;15.15;;;0.00;88.90;;;;;;5051175;28;20037;-45
2022/03/04 05:21:09;;;;;;;26.67;16.10;;;0.00;88.90;;;;;;5052028;28;20418;-45
2022/03/04 05:26:21;;;;;;;28.85;14.32;;;0.00;88.80;;;;;;5037709;28;20028;-46
2022/03/04 05:28:47;;;;;;;21.00;14.02;;;0.00;88.70;;;;;;5052432;28;20029;-45
2022/03/04 05:31:13;;;;;;;21.73;13.48;;;0.00;89.00;;;;;;5052282;28;20322;-46
2022/03/04 05:33:39;;;;;;;24.02;13.50;;;0.10;88.90;;;;;;5052351;28;20466;-45
2022/03/04 05:36:06;;;;;;;22.60;13.27;;;0.10;88.90;;;;;;5034484;28;20072;-44
2022/03/04 05:38:32;;;;;;;26.17;13.52;;;0.20;89.00;;;;;;5052242;28;20446;-49
2022/03/04 05:40:59;;;;;;;26.27;13.25;;;0.10;88.90;;;;;;5051835;28;20041;-44
2022/03/04 05:43:27;;;;;;;23.15;14.13;;;0.10;89.00;;;;;;5052252;28;20036;-46
2022/03/04 05:45:54;;;;;;;24.70;13.32;;;0.10;89.00;;;;;;5051867;28;20078;-44
2022/03/04 05:48:22;;;;;;;23.95;13.88;;;0.10;89.10;;;;;;5052205;28;20025;-47
2022/03/04 05:50:49;;;;;;;21.98;13.00;;;0.10;89.00;;;;;;5033977;28;20040;-43
2022/03/04 05:53:15;;;;;;;24.95;13.15;;;0.10;89.10;;;;;;5051839;28;20025;-44
2022/03/04 05:55:42;;;;;;;24.98;13.15;;;0.00;89.10;;;;;;5051808;28;20366;-46
2022/03/04 05:58:10;;;;;;;23.55;14.65;;;0.10;89.30;;;;;;5018390;28;20376;-45
2022/03/04 06:00:37;;;;;;;26.00;13.23;;;0.10;89.20;;;;;;5049893;28;20125;-49
2022/03/04 06:03:03;;;;;;;21.88;14.07;;;0.20;89.10;;;;;;5051549;28;20090;-43
2022/03/04 06:05:29;;;;;;;22.50;13.52;;;0.20;89.10;;;;;;5051120;28;20021;-45
2022/03/04 06:07:56;;;;;;;21.48;13.27;;;0.20;89.00;;;;;;5051852;28;20078;-45
2022/03/04 06:10:23;;;;;;;29.40;16.58;;;0.10;88.90;;;;;;5051384;28;20477;-46
2022/03/04 06:12:48;;;;;;;22.08;14.25;;;0.00;88.90;;;;;;5051410;28;20036;-48
2022/03/04 06:15:15;;;;;;;24.42;14.77;;;0.00;89.00;;;;;;5050288;28;20041;-44
2022/03/04 06:17:52;;;;;;;24.08;14.18;;;0.00;89.00;;;;;;5050328;28;20059;-47
2022/03/04 06:20:20;;;;;;;19.48;13.00;;;0.00;89.00;;;;;;5048909;28;20376;-46
2022/03/04 06:22:47;;;;;;;23.30;13.77;;;0.00;88.80;;;;;;5050004;28;20029;-44
2022/03/04 06:25:15;;;;;;;24.92;13.32;;;0.00;88.80;;;;;;5015596;28;20112;-44
2022/03/04 06:28:08;;;;;;;20.40;12.52;;;0.00;88.70;;;;;;5022837;28;20037;-46
2022/03/04 06:30:40;;;;;;;19.55;12.38;;;0.00;88.90;;;;;;5026483;28;20037;-45
2022/03/04 06:33:42;;;;;;;20.88;12.30;;;0.00;89.20;;;;;;5025017;28;20033;-43
2022/03/04 06:36:06;;;;;;;20.33;12.98;;;0.00;89.20;;;;;;5026065;28;20037;-44
2022/03/04 06:38:36;;;;;;;22.00;12.35;;;0.10;89.30;;;;;;5027112;28;20029;-47
2022/03/04 06:41:06;;;;;;;23.85;14.00;;;0.10;89.30;;;;;;5022280;28;20033;-43
2022/03/04 06:43:33;;;;;;;;;;;0.10;89.30;;;;;;5034012;28;20040;-44
2022/03/04 06:46:02;;;;;;;24.75;14.02;;;0.20;89.20;;;;;;5025060;28;20360;-44
2022/03/04 06:48:29;;;;;;;23.00;12.60;;;0.20;89.20;;;;;;5031374;28;20048;-42
2022/03/04 06:50:55;;;;;;;24.88;14.85;;;0.40;89.60;;;;;;5026507;28;20037;-44
2022/03/04 06:53:21;;;;;;;22.50;14.23;;;0.40;89.50;;;;;;5050723;28;20029;-44
2022/03/04 06:55:48;;;;;;;23.35;15.02;;;0.50;89.60;;;;;;5043399;28;20114;-43
2022/03/04 06:58:16;;;;;;;25.15;14.73;;;0.50;89.70;;;;;;5044801;28;20055;-44
2022/03/04 07:00:45;;;;;;;22.73;14.10;;;0.60;89.60;;;;;;5049861;28;20120;-43
2022/03/04 07:03:12;;;;;;;27.33;16.17;;;0.70;89.80;;;;;;5031664;28;20032;-47
2022/03/04 07:05:38;;;;;;;21.85;13.50;;;0.80;89.80;;;;;;5045970;28;20021;-44
2022/03/04 07:08:11;;;;;;;26.52;14.45;;;0.80;89.60;;;;;;5032092;28;20029;-44
2022/03/04 07:10:39;;;;;;;25.80;14.55;;;0.80;89.50;;;;;;5027516;28;20045;-42
2022/03/04 07:13:06;;;;;;;25.05;16.10;;;0.90;89.50;;;;;;5043578;28;20039;-50
2022/03/04 07:15:33;;;;;;;24.40;13.80;;;0.90;89.50;;;;;;5046857;28;20436;-43
2022/03/04 07:18:02;;;;;;;24.55;15.77;;;0.90;89.30;;;;;;5049345;28;20087;-45
2022/03/04 07:20:28;;;;;;;22.43;14.67;;;1.00;89.30;;;;;;5048994;28;20033;-42
2022/03/04 07:22:58;;;;;;;24.30;15.13;;;1.00;89.30;;;;;;5029115;28;20321;-44
2022/03/04 07:25:25;;;;;;;23.00;13.90;;;1.00;89.20;;;;;;5046994;28;20029;-45
2022/03/04 07:27:52;;;;;;;22.33;13.43;;;1.10;89.10;;;;;;5048969;28;20021;-44
2022/03/04 07:30:20;;;;;;;23.35;14.82;;;1.10;89.10;;;;;;5026695;28;20034;-46
2022/03/04 07:32:49;;;;;;;23.33;14.88;;;1.20;89.10;;;;;;5047527;28;20041;-45
2022/03/04 07:35:15;;;;;;;22.45;13.35;;;1.20;89.00;;;;;;5048735;28;20029;-45
2022/03/04 07:37:43;;;;;;;22.27;13.00;;;1.30;88.90;;;;;;5049111;28;20025;-45
2022/03/04 07:40:13;;;;;;;18.08;12.35;;;1.30;88.90;;;;;;5048335;28;20373;-47
2022/03/04 07:42:40;;;;;;;23.05;13.48;;;1.40;88.90;;;;;;5014667;28;20029;-49
2022/03/04 07:45:09;;;;;;;22.90;13.90;;;1.40;88.80;;;;;;5049172;28;20525;-47
2022/03/04 07:47:38;;;;;;;22.45;13.43;;;1.40;88.80;;;;;;5048785;28;20025;-49
2022/03/04 07:50:08;;;;;;;22.00;14.60;;;1.50;88.90;;;;;;5028522;28;20037;-47
2022/03/04 07:52:35;;;;;;;19.42;13.15;;;1.60;88.80;;;;;;5030026;28;20059;-48
2022/03/04 07:55:08;;;;;;;23.40;13.25;;;1.60;88.60;;;;;;5048779;28;20453;-47
2022/03/04 07:57:36;;;;;;;25.25;14.20;;;1.70;88.60;;;;;;5015531;28;20450;-48
2022/03/04 08:00:08;;;;;;;21.05;13.27;;;1.80;88.40;;;;;;5049060;28;20082;-49
2022/03/04 08:02:35;;;;;;;19.30;12.27;;;1.90;88.40;;;;;;5011962;28;20032;-46
2022/03/04 08:05:00;;;;;;;22.02;14.25;;;1.90;88.30;;;;;;5046127;28;20017;-50
2022/03/04 08:07:27;;;;;;;20.63;14.48;;;1.90;87.80;;;;;;5048505;28;20078;-49
2022/03/04 08:09:56;;;;;;;21.05;12.70;;;1.80;87.70;;;;;;5047901;28;20141;-49
2022/03/04 08:12:25;;;;;;;19.77;13.32;;;1.80;87.70;;;;;;5014219;28;20037;-45
2022/03/04 08:14:54;;;;;;;21.02;12.60;;;1.90;87.70;;;;;;5036572;28;20386;-48
2022/03/04 08:17:21;;;;;;;19.42;13.43;;;1.90;87.40;;;;;;5011293;28;20474;-46
2022/03/04 08:19:49;;;;;;;23.77;15.30;;;2.00;87.80;;;;;;5023700;28;20032;-45
2022/03/04 08:22:16;;;;;;;21.48;14.48;;;2.10;87.80;;;;;;5028081;28;20378;-45
2022/03/04 08:24:44;;;;;;;18.42;12.48;;;2.20;87.60;;;;;;5029625;28;20068;-45
2022/03/04 08:27:11;;;;;;;22.27;13.60;;;2.20;87.30;;;;;;5009945;28;20088;-45
2022/03/04 08:29:38;;;;;;;21.98;14.50;;;2.10;86.90;;;;;;5010761;28;20451;-45
2022/03/04 08:32:05;;;;;;;24.92;14.48;;;2.20;87.20;;;;;;5019497;28;20072;-44
2022/03/04 08:34:31;;;;;;;19.65;13.77;;;2.20;87.10;;;;;;5026532;28;20140;-48
2022/03/04 08:36:59;;;;;;;21.05;14.38;;;2.20;86.80;;;;;;5021467;28;20471;-45
2022/03/04 08:39:24;;;;;;;21.38;14.15;;;2.30;87.10;;;;;;5026474;28;20026;-45
2022/03/04 08:41:51;;;;;;;21.45;14.73;;;2.40;86.90;;;;;;5009199;28;20432;-43
2022/03/04 08:44:17;;;;;;;19.83;13.52;;;2.40;86.70;;;;;;5003277;28;20623;-45
2022/03/04 08:46:43;;;;;;;21.38;14.93;;;2.40;86.70;;;;;;5028676;28;20025;-44
2022/03/04 08:49:10;;;;;;;22.50;12.90;;;2.40;86.50;;;;;;5028502;28;20030;-46
2022/03/04 08:51:38;;;;;;;22.20;12.27;;;2.40;86.40;;;;;;5028717;28;20546;-44
2022/03/04 08:54:06;;;;;;;19.05;12.13;;;2.30;86.20;;;;;;5031063;28;20029;-46
2022/03/04 08:56:34;;;;;;;24.02;15.18;;;2.30;86.10;;;;;;5032408;28;20147;-44
2022/03/04 08:59:05;;;;;;;31.02;18.55;;;2.30;86.10;;;;;;5012247;28;20029;-47
2022/03/04 09:01:32;;;;;;;37.42;24.55;;;2.30;86.50;;;;;;5030603;28;20042;-45
2022/03/04 09:03:58;;;;;;;31.20;20.23;;;2.40;86.30;;;;;;5031818;28;20032;-43
2022/03/04 09:06:25;;;;;;;27.20;18.13;;;2.40;86.20;;;;;;5031155;28;20426;-43
2022/03/04 09:08:52;;;;;;;34.40;23.08;;;2.40;86.30;;;;;;5030468;28;20121;-45
2022/03/04 09:11:20;;;;;;;37.22;24.58;;;2.40;86.20;;;;;;5032220;28;20427;-44
2022/03/04 09:13:46;;;;;;;39.15;27.00;;;2.50;86.00;;;;;;5032135;28;20041;-45
2022/03/04 09:16:15;;;;;;;37.15;24.10;;;2.40;85.40;;;;;;5031084;28;20041;-43
2022/03/04 09:18:41;;;;;;;36.30;23.35;;;2.40;85.60;;;;;;5031270;28;20049;-43
2022/03/04 09:21:08;;;;;;;37.95;24.83;;;2.50;85.40;;;;;;5031546;28;20052;-44
2022/03/04 09:23:34;;;;;;;38.25;24.35;;;2.50;85.10;;;;;;5032009;28;20017;-44
2022/03/04 09:26:01;;;;;;;32.88;21.40;;;2.70;85.20;;;;;;5031186;28;20026;-43
2022/03/04 09:28:28;;;;;;;32.63;20.38;;;2.80;84.80;;;;;;5030999;28;20039;-43
2022/03/04 09:30:56;;;;;;;25.70;17.58;;;2.80;84.40;;;;;;5029329;28;20025;-44
2022/03/04 09:33:23;;;;;;;18.52;13.45;;;2.90;84.70;;;;;;5030290;28;20029;-45
2022/03/04 09:35:52;;;;;;;15.43;11.20;;;2.90;84.00;;;;;;5030304;28;20167;-44
2022/03/04 09:38:21;;;;;;;21.83;10.40;;;3.00;84.40;;;;;;5025673;28;20471;-46
2022/03/04 09:40:51;;;;;;;13.23;8.82;;;3.10;83.90;;;;;;5031532;28;20052;-45
2022/03/04 09:43:21;;;;;;;15.25;10.32;;;3.30;84.10;;;;;;5014428;28;20041;-43
2022/03/04 09:45:50;;;;;;;13.38;9.30;;;3.50;83.20;;;;;;5031071;28;20493;-43
2022/03/04 09:48:22;;;;;;;14.93;9.40;;;3.70;82.20;;;;;;5028553;28;20518;-43
2022/03/04 09:50:51;;;;;;;14.45;9.60;;;3.60;82.00;;;;;;5027327;28;20386;-44
2022/03/04 09:53:17;;;;;;;16.85;10.90;;;3.60;82.40;;;;;;5019822;28;20521;-47
2022/03/04 09:55:53;;;;;;;19.20;12.63;;;3.50;82.50;;;;;;5015584;28;20406;-42
2022/03/04 09:58:24;;;;;;;21.30;13.93;;;3.50;82.30;;;;;;5028315;28;20037;-46
2022/03/04 10:00:51;;;;;;;18.02;10.75;;;3.30;82.70;;;;;;5030563;28;20577;-42
2022/03/04 10:03:28;;;;;;;17.55;11.35;;;3.30;83.20;;;;;;5030557;28;20045;-44
2022/03/04 10:05:57;;;;;;;13.68;9.82;;;3.60;83.40;;;;;;5030333;28;20041;-45
2022/03/04 10:08:26;;;;;;;17.17;10.07;;;3.60;82.10;;;;;;4996144;28;20029;-43
2022/03/04 10:11:04;;;;;;;13.73;9.82;;;3.50;81.10;;;;;;5019989;28;20045;-45
2022/03/04 10:13:49;;;;;;;17.98;10.65;;;3.50;81.50;;;;;;5015685;28;20057;-44
2022/03/04 10:16:32;;;;;;;13.50;9.27;;;3.70;82.60;;;;;;5034621;28;20051;-44
2022/03/04 10:19:23;;;;;;;13.65;9.25;;;3.70;81.20;;;;;;5050731;28;20025;-45
2022/03/04 10:21:51;;;;;;;15.82;9.73;;;3.70;81.30;;;;;;5050015;28;20041;-45
2022/03/04 10:24:29;;;;;;;15.73;10.35;;;3.50;81.70;;;;;;5033340;28;20049;-44
2022/03/04 10:27:08;;;;;;;18.10;10.73;;;3.60;81.90;;;;;;5050344;28;20029;-46
2022/03/04 10:29:39;;;;;;;18.23;11.23;;;3.60;82.00;;;;;;5017104;28;20021;-44
2022/03/04 10:32:24;;;;;;;18.52;11.57;;;3.70;82.10;;;;;;5015788;28;20041;-50
2022/03/04 10:35:14;;;;;;;19.73;11.80;;;3.80;82.30;;;;;;5041842;28;20025;-44
2022/03/04 10:37:56;;;;;;;21.48;13.68;;;3.90;82.00;;;;;;5030108;28;20057;-44
2022/03/04 10:40:46;;;;;;;19.52;11.98;;;4.10;82.10;;;;;;5031566;28;20049;-44
2022/03/04 10:43:21;;;;;;;14.55;10.07;;;4.50;81.20;;;;;;5050401;28;20028;-48
2022/03/04 10:46:04;;;;;;;14.73;10.00;;;4.40;79.50;;;;;;5044350;28;20064;-44
2022/03/04 10:48:35;;;;;;;18.10;11.38;;;4.20;79.60;;;;;;5037916;28;20105;-42
2022/03/04 10:51:06;;;;;;;17.10;11.52;;;4.10;79.90;;;;;;5048992;28;20360;-46
2022/03/04 10:53:35;;;;;;;17.63;11.73;;;4.00;80.50;;;;;;5032328;28;20048;-48
2022/03/04 10:56:05;;;;;;;20.25;13.68;;;4.10;81.50;;;;;;5050153;28;20025;-45
2022/03/04 10:58:38;;;;;;;;;;;4.20;81.00;;;;;;5032399;28;20068;-45
2022/03/04 11:01:19;;;;;;;20.08;13.07;;;4.30;80.50;;;;;;5049400;28;19913;-46
2022/03/04 11:03:47;;;;;;;19.10;12.25;;;4.40;81.00;;;;;;5031968;28;20481;-45
2022/03/04 11:06:19;;;;;;;17.23;11.27;;;4.40;80.60;;;;;;5022080;28;20477;-45
2022/03/04 11:08:46;;;;;;;16.05;10.05;;;4.60;80.40;;;;;;5036162;28;20075;-44
2022/03/04 11:11:14;;;;;;;16.83;9.98;;;4.70;79.80;;;;;;5029931;28;20052;-44
2022/03/04 11:13:42;;;;;;;13.05;10.13;;;4.60;79.50;;;;;;5030330;28;20033;-45
2022/03/04 11:16:09;;;;;;;13.35;8.90;;;4.60;80.20;;;;;;5027905;28;20801;-46
2022/03/04 11:18:36;;;;;;;14.68;9.25;;;4.60;79.20;;;;;;5011939;28;20124;-45
2022/03/04 11:21:04;;;;;;;14.77;9.10;;;4.50;79.70;;;;;;5047640;28;20745;-45
2022/03/04 11:23:48;;;;;;;14.02;9.15;;;4.60;79.50;;;;;;5031942;28;20025;-44
2022/03/04 11:26:35;;;;;;;14.13;9.75;;;4.90;80.00;;;;;;5031316;28;20045;-45
2022/03/04 11:29:07;;;;;;;14.20;8.68;;;5.00;78.90;;;;;;5048983;28;20031;-45
2022/03/04 11:31:36;;;;;;;19.30;13.32;;;5.00;77.50;;;;;;5048872;28;20037;-47
2022/03/04 11:34:04;;;;;;;17.30;11.48;;;4.90;77.10;;;;;;5049175;28;20036;-43
2022/03/04 11:36:36;;;;;;;12.55;8.93;;;4.70;77.60;;;;;;5028189;28;20412;-48
2022/03/04 11:39:16;;;;;;;14.75;9.38;;;4.60;78.70;;;;;;5047215;28;20037;-44
2022/03/04 11:41:56;;;;;;;16.67;8.88;;;4.70;79.30;;;;;;5047965;28;20036;-44
2022/03/04 11:44:25;;;;;;;14.43;9.00;;;4.80;78.20;;;;;;5049140;28;20025;-43
2022/03/04 11:47:15;;;;;;;13.30;8.88;;;4.70;77.80;;;;;;5048802;28;20036;-44
2022/03/04 11:49:48;;;;;;;15.55;9.30;;;4.60;77.60;;;;;;5048934;28;20056;-44
2022/03/04 11:52:44;;;;;;;13.45;8.50;;;4.50;78.20;;;;;;5048319;28;20024;-47
2022/03/04 11:55:20;;;;;;;13.73;8.93;;;4.90;78.80;;;;;;5030877;28;20717;-43
2022/03/04 11:57:57;;;;;;;14.10;8.93;;;5.40;78.70;;;;;;5044540;28;20067;-44
2022/03/04 12:00:24;;;;;;;18.10;9.40;;;5.80;77.30;;;;;;5015225;28;20033;-44
2022/03/04 12:02:58;;;;;;;15.15;9.15;;;6.00;76.70;;;;;;5048683;28;20074;-45
2022/03/04 12:05:32;;;;;;;16.90;10.90;;;6.20;76.30;;;;;;5014417;28;20040;-46
2022/03/04 12:08:04;;;;;;;15.35;10.23;;;6.40;76.10;;;;;;5048665;28;20043;-45
2022/03/04 12:10:52;;;;;;;14.35;9.43;;;6.40;74.70;;;;;;5030823;28;20078;-44
2022/03/04 12:13:31;;;;;;;14.25;8.50;;;6.60;74.30;;;;;;5048493;28;20533;-43
2022/03/04 12:16:05;;;;;;;11.80;8.93;;;6.90;74.30;;;;;;5031852;28;20072;-45
2022/03/04 12:18:50;;;;;;;11.68;8.18;;;6.90;72.40;;;;;;5011088;28;20056;-46
2022/03/04 12:21:26;;;;;;;11.25;7.95;;;6.80;72.00;;;;;;5011092;28;20140;-44
2022/03/04 12:24:00;;;;;;;11.55;7.15;;;6.40;71.50;;;;;;4993974;28;20120;-45
2022/03/04 12:26:47;;;;;;;11.65;8.27;;;6.40;72.80;;;;;;5028367;28;20059;-43
2022/03/04 12:29:15;;;;;;;12.75;8.05;;;6.40;72.70;;;;;;5032257;28;20041;-43
2022/03/04 12:31:44;;;;;;;12.85;8.05;;;6.20;73.30;;;;;;5038907;28;20159;-45
2022/03/04 12:34:22;;;;;;;11.10;7.53;;;6.00;72.80;;;;;;5024005;28;20052;-43
2022/03/04 12:36:58;;;;;;;11.15;8.00;;;5.90;73.50;;;;;;5030894;28;20034;-45
2022/03/04 12:39:25;;;;;;;12.63;8.43;;;5.80;73.70;;;;;;5032067;28;20470;-44
2022/03/04 12:41:56;;;;;;;11.45;8.00;;;5.90;74.70;;;;;;5031881;28;20134;-47
2022/03/04 12:44:22;;;;;;;11.25;7.60;;;5.90;74.90;;;;;;5014054;28;20048;-44
2022/03/04 12:46:48;;;;;;;12.52;8.10;;;5.90;74.70;;;;;;5030913;28;20450;-44
2022/03/04 12:49:19;;;;;;;11.13;7.45;;;6.00;74.20;;;;;;5018125;28;20400;-43
2022/03/04 12:51:46;;;;;;;11.30;8.07;;;5.90;73.30;;;;;;5024524;28;20371;-43
2022/03/04 12:54:22;;;;;;;10.88;7.75;;;5.70;74.40;;;;;;5022903;28;20034;-43